19:48
Airports
History
Links
Donate
Help keep this website running!
PayPal
Bitcoin
This page is community maintained. The information is intended for PC simulator navigation or reference.
Always use approved charts for navigation.
82MN
Arneman Field
Arneman Field (82MN)
New Richland, Minnesota, United States (56072)
4
Lat/Lng:43° 53' 14.86" N / 93° 34' 5.79" W
43.887461 / -93.568276
Elevation:1187'ft / 362mMSL
ID / ICAO:82MN
Runways:1
Longest:36-18
Grass 917m / 3,010ft
Nearby Weather19:19 GMT 2017-12-12
Nearby weather at KAEL, Albert Lea Muni located 17.4 nautical miles from 82MN
Altimeter: 30.05
Visibility: 10.0 statute miles
Wind: 7 knots (from 230°)
Temp: -6°c / 21°f
Humidity: 73.2%

METAR: KAEL 121919Z AUTO 23007KT 10SM BKN024 OVC048 M06/M10 A3005 RMK AO2

(Powered by phpweather)
Nearby VORs <50NM
Nearby NDBs
Runway 36 / 18
Dimensions:917.3 x 18.3m 3010' x 60'ft
Surface:Grass
Runway 36 [A]Runway 18 [B]
Heading:004°TH 184°TH
Lat:
Lng:
43° 53' 0.08"N
93° 34' 7.23"W
43° 53' 29.63"N
93° 34' 4.36"W
User Notes and Comments
43° 53' 14.86" N / 93° 34' 5.79" W
Distance To
Airport ID:
Nearby Airports
4 Jacobsen 8.1 NM
48MN S 187°
(U) Waseca Muni 12.9 NM
KACQ N
(R) B & D Flyers Intl 14.1 NM
MN74 WSW 253°
4 Wells Muni 15.1 NM
68Y SW 225°
(U) Albert Lea Muni 17.4 NM
KAEL ( WX ) SE 144°
4 Ward 21.3 NM
MN61 ESE 114°
4 Gallers 21.9 NM
75MN NNW 340°
VFR Chart
Flight Planning at SkyVector.com